Time;durP1;ratioP1;P1;durP2;ratioP2;P2;SDS_P1;SDS_P2;PMS_P1;PMS_P2;Temp;Humidity;BMP_temperature;BMP_pressure;BME280_temperature;BME280_humidity;BME280_pressure;Samples;Min_cycle;Max_cycle;Signal;HPM_P1;HPM_P2
2022/01/29 00:01:32;;;;;;;33.28;18.23;;;2.70;1.00;;;;;;5030291;28;20041;-74
2022/01/29 00:03:59;;;;;;;27.67;19.30;;;2.70;84.60;;;;;;5026875;28;20469;-76
2022/01/29 00:06:27;;;;;;;44.75;18.25;;;2.70;59.80;;;;;;5015577;28;20462;-76
2022/01/29 00:08:56;;;;;;;28.92;20.92;;;2.70;1.00;;;;;;4997828;28;20041;-76
2022/01/29 00:11:29;;;;;;;21.33;16.30;;;2.70;1.00;;;;;;5016593;28;20380;-76
2022/01/29 00:13:57;;;;;;;39.92;26.17;;;2.80;1.00;;;;;;5019201;28;20052;-76
2022/01/29 00:16:25;;;;;;;16.90;13.75;;;2.70;1.00;;;;;;5024564;28;20049;-77
2022/01/29 00:18:52;;;;;;;29.27;20.50;;;2.70;99.90;;;;;;5015318;28;20133;-76
2022/01/29 00:21:20;;;;;;;31.08;20.40;;;2.80;99.90;;;;;;5016717;28;20049;-76
2022/01/29 00:23:47;;;;;;;27.23;12.20;;;2.80;99.90;;;;;;5005380;28;20049;-76
2022/01/29 00:26:16;;;;;;;30.83;21.95;;;2.80;26.70;;;;;;5032345;28;20046;-76
2022/01/29 00:28:47;;;;;;;59.97;20.75;;;2.80;1.00;;;;;;5032191;28;20068;-76
2022/01/29 00:31:14;;;;;;;34.05;16.65;;;2.90;1.00;;;;;;5018039;28;20490;-76
2022/01/29 00:33:42;;;;;;;20.83;17.73;;;2.90;1.00;;;;;;5014947;28;20509;-76
2022/01/29 00:36:09;;;;;;;24.05;21.58;;;2.90;1.00;;;;;;5010426;28;20042;-76
2022/01/29 00:38:37;;;;;;;32.53;24.20;;;3.00;99.90;;;;;;5043008;28;20069;-75
2022/01/29 00:41:04;;;;;;;26.00;14.13;;;3.00;1.00;;;;;;5009442;28;20069;-75
2022/01/29 00:43:32;;;;;;;34.42;18.08;;;2.90;19.50;;;;;;5024308;28;20148;-75
2022/01/29 00:46:01;;;;;;;22.38;12.48;;;3.00;1.00;;;;;;5024198;28;20114;-76
2022/01/29 00:48:29;;;;;;;21.75;17.48;;;3.00;1.00;;;;;;4997810;28;20092;-75
2022/01/29 00:51:00;;;;;;;27.58;12.50;;;3.10;99.90;;;;;;4996590;28;20096;-77
2022/01/29 00:53:28;;;;;;;38.80;19.20;;;3.20;99.90;;;;;;5014624;28;20048;-75
2022/01/29 00:55:55;;;;;;;21.52;15.35;;;3.20;12.10;;;;;;5014335;28;20068;-76
2022/01/29 00:58:23;;;;;;;19.73;14.20;;;3.20;99.90;;;;;;4992905;28;20073;-76
2022/01/29 01:00:50;;;;;;;19.75;13.05;;;3.20;1.00;;;;;;5000624;28;20045;-76
2022/01/29 01:03:19;;;;;;;11.82;9.07;;;3.30;1.00;;;;;;5025309;28;20513;-76
2022/01/29 01:05:46;;;;;;;25.75;11.68;;;3.30;1.00;;;;;;5016633;28;20073;-76
2022/01/29 01:08:14;;;;;;;42.63;14.80;;;3.40;99.90;;;;;;5033593;28;20049;-76
2022/01/29 01:10:41;;;;;;;15.52;11.90;;;3.40;1.00;;;;;;5019724;28;20129;-75
2022/01/29 01:13:09;;;;;;;28.77;11.40;;;3.40;99.90;;;;;;5037873;28;20554;-75
2022/01/29 01:15:37;;;;;;;21.20;13.23;;;3.30;1.00;;;;;;5020667;28;20042;-75
2022/01/29 01:18:04;;;;;;;17.88;9.82;;;3.30;1.00;;;;;;5000542;28;20050;-76
2022/01/29 01:20:33;;;;;;;10.80;9.90;;;3.30;99.90;;;;;;5000766;28;20414;-76
2022/01/29 01:23:01;;;;;;;21.77;7.47;;;3.40;99.90;;;;;;5027501;28;20045;-75
2022/01/29 01:25:28;;;;;;;5.38;4.93;;;3.40;1.00;;;;;;5009039;28;20045;-76
2022/01/29 01:27:56;;;;;;;9.02;6.40;;;3.50;1.00;;;;;;5027138;28;20045;-75
2022/01/29 01:30:24;;;;;;;24.52;5.47;;;3.50;1.00;;;;;;5000861;28;20053;-76
2022/01/29 01:32:51;;;;;;;4.65;3.50;;;3.50;99.90;;;;;;5023477;28;20557;-77
2022/01/29 01:35:23;;;;;;;6.57;4.45;;;3.50;18.90;;;;;;5011418;28;20045;-76
2022/01/29 01:37:56;;;;;;;13.90;7.22;;;3.50;1.00;;;;;;5010518;28;20117;-76
2022/01/29 01:40:26;;;;;;;7.30;5.75;;;3.60;1.00;;;;;;5019341;28;20052;-75
2022/01/29 01:42:59;;;;;;;6.18;3.25;;;3.50;1.00;;;;;;5025533;28;20076;-76
2022/01/29 01:45:27;;;;;;;4.35;3.00;;;3.60;1.00;;;;;;5013142;28;20048;-76
2022/01/29 01:47:55;;;;;;;2.38;2.17;;;3.70;13.90;;;;;;5027207;28;20077;-76
2022/01/29 01:50:22;;;;;;;4.10;3.10;;;3.70;1.00;;;;;;5022715;28;20045;-76
2022/01/29 01:52:52;;;;;;;0.20;0.20;;;3.80;99.90;;;;;;5032199;28;20069;-77
2022/01/29 01:55:19;;;;;;;0.35;0.35;;;3.90;65.00;;;;;;5030693;28;20049;-76
2022/01/29 01:57:47;;;;;;;0.50;0.50;;;3.90;1.00;;;;;;5029221;28;20092;-76
2022/01/29 02:00:15;;;;;;;0.10;0.10;;;4.00;1.00;;;;;;5031315;28;20057;-76
2022/01/29 02:02:43;;;;;;;0.00;0.00;;;4.10;1.00;;;;;;5020132;28;20108;-76
2022/01/29 02:05:11;;;;;;;0.00;0.00;;;4.20;1.00;;;;;;5003299;28;20426;-77
2022/01/29 02:07:39;;;;;;;0.38;0.38;;;4.20;1.00;;;;;;5014384;28;20053;-76
2022/01/29 02:10:10;;;;;;;0.43;0.40;;;4.30;1.00;;;;;;5003123;28;20053;-76
2022/01/29 02:12:46;;;;;;;0.52;0.52;;;4.30;1.00;;;;;;5030883;28;20065;-77
2022/01/29 02:15:15;;;;;;;0.00;0.00;;;4.20;1.00;;;;;;5032450;28;20098;-76
2022/01/29 02:17:42;;;;;;;0.47;0.47;;;4.20;1.00;;;;;;5028479;28;20053;-76
2022/01/29 02:20:10;;;;;;;1.73;0.63;;;4.20;1.00;;;;;;5018528;28;20057;-75
2022/01/29 02:22:41;;;;;;;0.08;0.08;;;4.20;99.90;;;;;;5013247;28;20091;-76
2022/01/29 02:25:31;;;;;;;0.00;0.00;;;4.20;1.00;;;;;;5028603;28;20073;-76
2022/01/29 02:28:01;;;;;;;0.15;0.15;;;4.30;1.00;;;;;;5037813;28;20056;-76
2022/01/29 02:30:32;;;;;;;0.00;0.00;;;4.40;99.90;;;;;;5030992;28;20056;-76
2022/01/29 02:33:00;;;;;;;0.00;0.00;;;4.40;1.00;;;;;;5034807;28;20045;-76
2022/01/29 02:35:28;;;;;;;0.00;0.00;;;4.50;1.00;;;;;;5022870;28;20049;-76
2022/01/29 02:37:58;;;;;;;0.00;0.00;;;4.50;1.00;;;;;;5027314;28;20053;-76
2022/01/29 02:40:26;;;;;;;0.10;0.10;;;4.40;1.00;;;;;;5015176;28;20081;-76
2022/01/29 02:42:55;;;;;;;0.20;0.20;;;4.40;99.90;;;;;;5007872;28;20045;-75
2022/01/29 02:45:26;;;;;;;0.00;0.00;;;4.40;1.00;;;;;;5040344;28;20140;-76
2022/01/29 02:47:54;;;;;;;0.00;0.00;;;4.50;1.00;;;;;;4992688;22;20055;-79
2022/01/29 02:50:21;;;;;;;0.00;0.00;;;4.50;1.00;;;;;;4979521;28;20426;-79
2022/01/29 02:52:48;;;;;;;0.00;0.00;;;4.50;1.00;;;;;;4938772;29;20069;-77
2022/01/29 02:55:17;;;;;;;0.00;0.00;;;4.40;1.00;;;;;;4952236;29;20070;-79
2022/01/29 02:57:45;;;;;;;0.13;0.13;;;4.40;27.80;;;;;;4985383;28;20056;-79
2022/01/29 03:00:14;;;;;;;0.10;0.10;;;4.40;1.00;;;;;;4900127;29;20078;-78
2022/01/29 03:02:41;;;;;;;0.10;0.10;;;4.40;1.00;;;;;;4916834;28;20075;-78
2022/01/29 03:05:09;;;;;;;0.00;0.00;;;4.40;99.90;;;;;;4917678;29;20119;-79
2022/01/29 03:07:38;;;;;;;0.00;0.00;;;4.40;1.00;;;;;;4900738;29;20501;-77
2022/01/29 03:10:07;;;;;;;0.55;0.55;;;4.40;1.00;;;;;;4981789;28;20054;-77
2022/01/29 03:12:37;;;;;;;0.00;0.00;;;4.40;1.00;;;;;;4919505;28;20484;-76
2022/01/29 03:15:06;;;;;;;2.95;1.65;;;4.40;1.00;;;;;;4935272;28;20048;-79
2022/01/29 03:17:33;;;;;;;0.15;0.15;;;4.40;23.50;;;;;;4919185;28;20044;-78
2022/01/29 03:20:01;;;;;;;0.45;0.45;;;4.40;99.90;;;;;;4935503;29;20052;-78
2022/01/29 03:22:28;;;;;;;0.00;0.00;;;4.40;99.90;;;;;;4919939;29;20416;-78
2022/01/29 03:24:56;;;;;;;0.00;0.00;;;4.40;99.90;;;;;;4919357;28;20207;-80
2022/01/29 03:27:23;;;;;;;0.00;0.00;;;4.50;99.90;;;;;;4935713;29;20098;-78
2022/01/29 03:29:52;;;;;;;0.00;0.00;;;4.50;48.60;;;;;;4937068;29;20131;-79
2022/01/29 03:32:20;;;;;;;0.00;0.00;;;4.50;99.90;;;;;;4918805;29;20443;-78
2022/01/29 03:34:47;;;;;;;0.00;0.00;;;4.50;99.90;;;;;;4919284;29;20047;-79
2022/01/29 03:37:15;;;;;;;0.20;0.20;;;4.50;1.00;;;;;;4936532;28;20090;-80
2022/01/29 03:39:44;;;;;;;1.27;1.17;;;4.50;1.00;;;;;;4921585;29;20083;-78
2022/01/29 03:42:13;;;;;;;0.30;0.30;;;4.50;99.90;;;;;;4917965;29;20127;-79
2022/01/29 03:44:41;;;;;;;0.15;0.15;;;4.50;1.00;;;;;;4900195;29;20413;-79
2022/01/29 03:47:10;;;;;;;0.47;0.30;;;4.50;1.00;;;;;;4917359;29;20092;-79
2022/01/29 03:49:38;;;;;;;0.00;0.00;;;4.40;99.90;;;;;;4945364;28;20166;-79
2022/01/29 03:52:06;;;;;;;0.05;0.05;;;4.50;1.00;;;;;;4969856;28;20047;-79
2022/01/29 03:54:33;;;;;;;0.10;0.10;;;4.40;1.00;;;;;;4922615;28;20044;-79
2022/01/29 03:57:01;;;;;;;0.00;0.00;;;4.40;1.00;;;;;;4917088;29;20127;-79
2022/01/29 03:59:28;;;;;;;0.22;0.15;;;4.50;1.00;;;;;;4916624;29;20044;-78
2022/01/29 04:01:56;;;;;;;0.00;0.00;;;4.50;1.00;;;;;;4916783;29;20044;-79
2022/01/29 04:04:24;;;;;;;0.00;0.00;;;4.40;1.00;;;;;;4899771;29;20068;-78
2022/01/29 04:06:52;;;;;;;0.00;0.00;;;4.40;1.00;;;;;;4928044;29;20044;-79
2022/01/29 04:09:21;;;;;;;0.77;0.57;;;4.50;56.30;;;;;;4918942;29;20055;-78
2022/01/29 04:11:48;;;;;;;0.00;0.00;;;4.40;99.90;;;;;;4941231;29;20035;-77
2022/01/29 04:14:18;;;;;;;0.10;0.10;;;4.50;1.00;;;;;;4940552;29;20556;-78
2022/01/29 04:16:45;;;;;;;0.00;0.00;;;4.50;99.90;;;;;;4918442;29;20048;-79
2022/01/29 04:19:13;;;;;;;0.55;0.15;;;4.50;99.90;;;;;;4935076;29;20054;-77
2022/01/29 04:21:42;;;;;;;0.45;0.45;;;4.50;1.00;;;;;;4925007;29;20049;-79
2022/01/29 04:24:10;;;;;;;0.00;0.00;;;4.40;1.00;;;;;;4916950;29;20129;-79
2022/01/29 04:26:37;;;;;;;0.00;0.00;;;4.40;1.00;;;;;;4901449;29;20090;-79
2022/01/29 04:29:08;;;;;;;0.00;0.00;;;4.40;1.00;;;;;;4905364;29;20083;-79
2022/01/29 04:31:42;;;;;;;0.00;0.00;;;4.40;1.00;;;;;;4904786;29;20067;-79
2022/01/29 04:34:09;;;;;;;0.10;0.10;;;4.40;1.00;;;;;;4914302;29;20043;-80
2022/01/29 04:36:36;;;;;;;0.00;0.00;;;4.40;1.00;;;;;;4926411;29;20224;-77
2022/01/29 04:39:05;;;;;;;0.15;0.08;;;4.40;99.90;;;;;;4941835;29;20150;-79
2022/01/29 04:41:33;;;;;;;0.17;0.17;;;4.30;99.90;;;;;;4942507;29;20071;-77
2022/01/29 04:44:00;;;;;;;0.32;0.32;;;4.20;99.90;;;;;;4941802;29;20046;-78
2022/01/29 04:46:28;;;;;;;0.00;0.00;;;4.10;99.90;;;;;;4936792;29;20044;-77
2022/01/29 04:48:55;;;;;;;0.10;0.10;;;4.00;44.40;;;;;;4908367;29;20497;-79
2022/01/29 04:51:23;;;;;;;0.10;0.10;;;3.90;9.50;;;;;;4922667;28;20040;-79
2022/01/29 04:53:50;;;;;;;0.10;0.10;;;3.80;99.90;;;;;;4937781;29;20047;-80
2022/01/29 04:56:19;;;;;;;10.48;3.28;;;3.80;99.90;;;;;;4928889;29;20059;-78
2022/01/29 04:58:47;;;;;;;12.77;2.70;;;3.80;99.90;;;;;;4946460;29;20067;-79
2022/01/29 05:01:14;;;;;;;11.43;2.42;;;3.70;99.90;;;;;;4945049;29;20046;-79
2022/01/29 05:03:42;;;;;;;11.30;2.97;;;3.70;99.90;;;;;;4946430;29;20036;-79
2022/01/29 05:06:10;;;;;;;11.30;2.80;;;3.70;99.90;;;;;;4945261;29;20054;-77
2022/01/29 05:08:37;;;;;;;11.38;2.80;;;3.70;99.90;;;;;;4940984;29;20048;-80
2022/01/29 05:11:06;;;;;;;13.75;3.78;;;3.70;1.00;;;;;;4938342;29;20047;-79
2022/01/29 05:13:37;;;;;;;13.05;3.67;;;3.70;1.00;;;;;;4938501;29;20051;-78
2022/01/29 05:16:31;;;;;;;8.13;1.95;;;3.70;1.00;;;;;;4921535;29;20052;-79
2022/01/29 05:27:13;;;;;;;10.75;3.10;;;3.90;1.00;;;;;;4902306;28;20056;-80
2022/01/29 05:29:41;;;;;;;11.80;2.70;;;4.00;1.00;;;;;;4901976;29;20560;-78
2022/01/29 05:32:11;;;;;;;14.43;3.17;;;4.00;1.00;;;;;;4919362;29;20131;-79
2022/01/29 05:34:40;;;;;;;11.45;2.42;;;3.90;1.00;;;;;;4901815;29;20075;-77
2022/01/29 05:37:08;;;;;;;9.82;2.75;;;3.90;1.00;;;;;;4920507;29;20142;-78
2022/01/29 05:39:37;;;;;;;11.10;3.30;;;3.90;1.00;;;;;;4938416;29;20036;-79
2022/01/29 05:42:05;;;;;;;13.27;4.47;;;3.90;1.00;;;;;;4937283;29;20043;-77
2022/01/29 05:44:32;;;;;;;13.23;3.45;;;3.90;1.00;;;;;;4921104;29;20467;-78
2022/01/29 05:47:01;;;;;;;9.88;3.10;;;3.80;1.00;;;;;;4922168;28;20143;-79
2022/01/29 05:49:29;;;;;;;12.50;3.10;;;3.80;1.00;;;;;;4942775;29;20040;-78
2022/01/29 05:51:56;;;;;;;14.85;3.85;;;3.80;1.00;;;;;;4927447;29;20127;-79
2022/01/29 05:54:23;;;;;;;12.30;3.65;;;3.70;1.00;;;;;;4934736;29;20095;-79
2022/01/29 05:56:51;;;;;;;11.20;3.63;;;3.60;1.00;;;;;;4941219;29;20039;-78
2022/01/29 05:59:18;;;;;;;13.98;4.20;;;3.60;1.00;;;;;;4978596;28;20406;-78
2022/01/29 06:01:46;;;;;;;13.52;4.85;;;3.50;1.00;;;;;;5020132;28;20149;-79
2022/01/29 06:04:15;;;;;;;16.00;5.25;;;3.50;1.00;;;;;;4949166;28;20096;-79
2022/01/29 06:06:42;;;;;;;17.88;6.70;;;3.50;96.20;;;;;;4933179;29;20075;-78
2022/01/29 06:09:10;;;;;;;26.75;7.85;;;3.40;24.30;;;;;;4928630;29;20062;-79
2022/01/29 06:11:37;;;;;;;20.05;6.57;;;3.40;99.90;;;;;;4927870;29;20504;-79
2022/01/29 06:14:04;;;;;;;17.85;6.93;;;3.30;99.90;;;;;;4929437;29;20115;-78
2022/01/29 06:16:32;;;;;;;18.05;6.50;;;3.20;1.00;;;;;;4924642;29;20055;-79
2022/01/29 06:18:59;;;;;;;13.23;5.07;;;3.20;99.90;;;;;;4921267;29;20046;-79
2022/01/29 06:21:28;;;;;;;19.48;5.93;;;3.20;1.00;;;;;;4939393;29;20071;-79
2022/01/29 06:23:57;;;;;;;22.23;8.75;;;3.20;99.90;;;;;;4939385;29;20405;-80
2022/01/29 06:26:25;;;;;;;21.60;7.30;;;3.20;1.00;;;;;;4921857;29;20493;-78
2022/01/29 06:28:52;;;;;;;21.70;7.10;;;3.20;1.00;;;;;;4939660;29;20049;-76
2022/01/29 06:31:20;;;;;;;15.27;6.80;;;3.20;1.00;;;;;;4965234;28;20051;-77
2022/01/29 06:33:48;;;;;;;18.73;7.53;;;3.40;1.00;;;;;;4926074;28;20070;-79
2022/01/29 06:36:15;;;;;;;18.30;7.53;;;3.50;1.00;;;;;;4937018;28;20131;-78
2022/01/29 06:38:44;;;;;;;22.30;6.90;;;3.60;99.90;;;;;;4918507;29;20052;-79
2022/01/29 06:41:12;;;;;;;21.88;8.65;;;3.60;1.00;;;;;;4918436;29;20496;-79
2022/01/29 06:43:39;;;;;;;25.38;9.75;;;3.70;1.00;;;;;;4918106;29;20050;-79
2022/01/29 06:46:07;;;;;;;24.52;10.63;;;3.80;1.00;;;;;;4935298;29;20071;-78
2022/01/29 06:48:34;;;;;;;30.27;11.90;;;3.90;1.00;;;;;;4917987;29;20062;-78
2022/01/29 06:51:02;;;;;;;40.10;13.68;;;3.80;1.00;;;;;;4935118;29;20503;-80
2022/01/29 06:53:29;;;;;;;28.95;12.55;;;3.90;1.00;;;;;;4917780;29;20051;-79
2022/01/29 06:55:58;;;;;;;25.23;9.82;;;3.80;1.00;;;;;;4915985;29;20044;-78
2022/01/29 06:58:25;;;;;;;22.08;9.38;;;3.80;1.00;;;;;;4899713;29;20051;-78
2022/01/29 07:00:53;;;;;;;28.00;9.30;;;3.80;1.00;;;;;;4899935;29;20048;-77
2022/01/29 07:03:20;;;;;;;22.95;10.18;;;3.70;15.80;;;;;;4899894;29;20465;-79
2022/01/29 07:05:49;;;;;;;20.85;8.20;;;3.70;1.00;;;;;;4907243;29;20563;-77
2022/01/29 07:08:17;;;;;;;18.05;7.35;;;3.70;1.00;;;;;;4898477;28;20048;-77
2022/01/29 07:10:46;;;;;;;17.42;6.13;;;3.70;1.00;;;;;;4899529;29;20149;-77
2022/01/29 07:13:14;;;;;;;15.85;6.88;;;3.60;99.90;;;;;;4902958;28;20044;-78
2022/01/29 07:15:42;;;;;;;20.30;6.20;;;3.80;99.90;;;;;;4920264;29;20063;-81
2022/01/29 07:18:09;;;;;;;23.50;8.00;;;4.00;15.40;;;;;;4917654;29;20075;-81
2022/01/29 07:20:38;;;;;;;22.58;9.23;;;4.10;76.50;;;;;;4917724;29;20048;-82
2022/01/29 07:23:06;;;;;;;20.13;8.90;;;4.10;1.00;;;;;;4933738;28;20043;-78
2022/01/29 07:25:34;;;;;;;18.52;6.07;;;4.20;99.90;;;;;;4988550;28;20109;-79
2022/01/29 07:28:01;;;;;;;17.65;6.00;;;4.40;99.90;;;;;;4978632;28;20465;-79
2022/01/29 07:30:30;;;;;;;17.83;6.50;;;4.70;1.00;;;;;;4920568;28;20054;-78
2022/01/29 07:32:58;;;;;;;15.27;6.10;;;4.70;1.00;;;;;;4933466;29;20043;-77
2022/01/29 07:35:25;;;;;;;17.25;6.75;;;4.80;99.90;;;;;;4935561;29;20043;-78
2022/01/29 07:37:53;;;;;;;13.55;5.85;;;4.70;99.90;;;;;;4935831;28;20142;-77
2022/01/29 07:40:20;;;;;;;16.55;4.45;;;4.90;99.90;;;;;;4970531;28;20055;-77
2022/01/29 07:42:48;;;;;;;11.70;4.75;;;5.00;1.00;;;;;;4954200;28;20483;-79
2022/01/29 07:45:15;;;;;;;15.15;4.95;;;5.00;1.00;;;;;;4937727;29;20040;-77
2022/01/29 07:47:44;;;;;;;16.67;5.05;;;4.90;1.00;;;;;;4899866;28;20066;-79
2022/01/29 07:50:12;;;;;;;12.15;5.15;;;4.80;1.00;;;;;;4929890;29;20054;-76
2022/01/29 07:52:39;;;;;;;15.18;4.90;;;4.90;1.00;;;;;;4918327;29;20127;-80
2022/01/29 07:55:07;;;;;;;13.77;3.67;;;4.90;99.90;;;;;;4937152;29;20047;-79
2022/01/29 07:57:35;;;;;;;13.27;3.97;;;4.80;99.90;;;;;;4916640;29;20052;-80
2022/01/29 08:00:03;;;;;;;17.35;5.38;;;4.80;1.00;;;;;;4901759;29;20460;-82
2022/01/29 08:02:41;;;;;;;12.68;5.53;;;4.90;1.00;;;;;;4918601;29;20060;-76
2022/01/29 08:05:13;;;;;;;19.05;7.55;;;5.10;99.90;;;;;;4899704;29;20139;-76
2022/01/29 08:07:40;;;;;;;15.75;7.00;;;5.30;1.00;;;;;;4917767;29;20531;-81
2022/01/29 08:10:08;;;;;;;14.98;5.53;;;5.50;99.90;;;;;;4906157;29;20497;-78
2022/01/29 08:12:36;;;;;;;11.38;4.65;;;5.60;99.90;;;;;;4902383;29;20075;-78
2022/01/29 08:15:05;;;;;;;13.52;5.43;;;5.60;1.00;;;;;;4908395;29;20051;-78
2022/01/29 08:17:32;;;;;;;16.77;6.07;;;5.60;1.00;;;;;;4927723;28;20051;-78
2022/01/29 08:20:00;;;;;;;15.77;5.60;;;5.70;99.90;;;;;;4957696;28;20046;-80
2022/01/29 08:22:30;;;;;;;15.27;5.65;;;5.80;1.00;;;;;;4943617;28;20047;-79
2022/01/29 08:24:57;;;;;;;20.25;6.95;;;5.90;23.00;;;;;;4950356;29;20099;-80
2022/01/29 08:27:25;;;;;;;26.17;9.25;;;5.90;99.90;;;;;;5007419;28;20211;-80
2022/01/29 08:29:52;;;;;;;23.05;9.80;;;6.00;1.00;;;;;;4934528;28;20055;-81
2022/01/29 08:32:20;;;;;;;21.60;9.40;;;5.90;85.30;;;;;;4933556;29;20071;-78
2022/01/29 08:34:47;;;;;;;23.90;10.20;;;6.10;1.00;;;;;;4900246;29;20040;-77
2022/01/29 08:37:15;;;;;;;23.25;11.30;;;6.20;24.70;;;;;;4899582;29;20055;-77
2022/01/29 08:39:45;;;;;;;22.83;10.77;;;6.20;1.00;;;;;;4918242;29;20044;-79
2022/01/29 08:42:13;;;;;;;23.75;10.35;;;6.30;99.90;;;;;;4900446;28;20111;-77
2022/01/29 08:44:41;;;;;;;26.38;10.35;;;6.30;1.00;;;;;;4908899;29;20143;-81
2022/01/29 08:47:08;;;;;;;23.15;9.65;;;6.30;1.00;;;;;;4914131;28;20056;-78
2022/01/29 08:49:36;;;;;;;18.58;6.40;;;6.20;99.90;;;;;;4905286;29;20049;-78
2022/01/29 08:52:04;;;;;;;18.30;6.00;;;6.00;1.00;;;;;;4900900;29;20055;-80
2022/01/29 08:54:31;;;;;;;16.15;6.22;;;5.80;99.90;;;;;;4898322;29;20068;-79
2022/01/29 08:57:00;;;;;;;16.60;6.50;;;5.70;99.90;;;;;;4909884;29;20044;-80
2022/01/29 08:59:28;;;;;;;18.75;8.35;;;5.90;1.00;;;;;;4944679;28;20046;-80
2022/01/29 09:01:55;;;;;;;13.70;5.22;;;6.10;99.90;;;;;;4959030;28;20066;-80
2022/01/29 09:04:22;;;;;;;14.05;3.88;;;6.10;1.00;;;;;;4939834;28;20051;-78
2022/01/29 09:06:50;;;;;;;16.15;5.95;;;6.10;1.00;;;;;;4940748;29;20055;-79
2022/01/29 09:09:22;;;;;;;12.05;3.60;;;6.20;1.00;;;;;;4945187;28;20115;-79
2022/01/29 09:11:51;;;;;;;8.45;3.30;;;6.30;1.00;;;;;;4946173;28;20052;-77
2022/01/29 09:14:23;;;;;;;9.07;3.20;;;6.30;1.00;;;;;;4943448;28;20036;-78
2022/01/29 09:16:51;;;;;;;7.93;3.28;;;6.10;1.00;;;;;;4944301;28;20052;-78
2022/01/29 09:19:18;;;;;;;9.70;4.70;;;6.20;1.00;;;;;;4946343;28;20052;-79
2022/01/29 09:21:46;;;;;;;15.15;4.93;;;6.30;1.00;;;;;;4942798;28;20044;-79
2022/01/29 09:24:13;;;;;;;16.20;4.50;;;6.20;1.00;;;;;;4941351;29;20043;-80
2022/01/29 09:26:41;;;;;;;12.48;4.03;;;6.20;1.00;;;;;;4940972;28;20147;-80
2022/01/29 09:29:08;;;;;;;12.43;3.83;;;6.20;60.20;;;;;;4941777;28;20051;-78
2022/01/29 09:31:37;;;;;;;13.75;4.60;;;6.10;1.00;;;;;;4944308;28;20079;-80
2022/01/29 09:34:04;;;;;;;13.98;4.28;;;6.20;1.00;;;;;;4944954;28;20043;-79
2022/01/29 09:36:32;;;;;;;13.40;3.92;;;6.20;1.00;;;;;;4944184;28;20071;-79
2022/01/29 09:38:59;;;;;;;9.82;3.40;;;6.40;13.20;;;;;;4943465;28;20056;-78
2022/01/29 09:41:28;;;;;;;11.73;4.72;;;6.50;99.90;;;;;;4941995;28;20062;-79
2022/01/29 09:43:56;;;;;;;14.70;4.53;;;6.70;1.00;;;;;;4944735;28;20090;-79
2022/01/29 09:46:27;;;;;;;15.07;4.28;;;6.90;8.60;;;;;;4945699;28;20123;-80
2022/01/29 09:48:56;;;;;;;11.70;3.90;;;7.00;1.00;;;;;;4948236;28;20047;-80
2022/01/29 09:51:24;;;;;;;12.20;3.90;;;6.70;99.90;;;;;;4966325;28;20576;-79
2022/01/29 09:53:51;;;;;;;13.07;4.20;;;6.90;1.00;;;;;;4964998;28;20049;-79
2022/01/29 09:56:19;;;;;;;32.85;11.48;;;7.00;1.00;;;;;;4947376;28;20043;-79
2022/01/29 09:58:46;;;;;;;15.82;4.88;;;7.00;1.00;;;;;;4964304;28;20051;-80
2022/01/29 10:01:14;;;;;;;13.27;3.78;;;6.90;99.90;;;;;;4948547;28;20047;-80
2022/01/29 10:03:41;;;;;;;12.48;4.70;;;6.70;1.00;;;;;;4947758;28;20130;-79
2022/01/29 10:06:16;;;;;;;19.67;7.82;;;6.60;99.90;;;;;;4964851;28;20130;-80
2022/01/29 10:08:45;;;;;;;13.75;4.75;;;6.90;1.00;;;;;;4960751;28;20504;-78
2022/01/29 10:11:20;;;;;;;16.10;5.82;;;6.90;99.90;;;;;;4943266;28;20054;-80
2022/01/29 10:13:48;;;;;;;14.23;5.53;;;7.00;99.90;;;;;;4945281;28;20047;-80
2022/01/29 10:16:18;;;;;;;14.80;5.00;;;7.10;1.00;;;;;;4959366;28;20046;-79
2022/01/29 10:18:48;;;;;;;19.50;5.60;;;6.90;1.00;;;;;;4961819;28;20039;-79
2022/01/29 10:21:22;;;;;;;15.25;5.05;;;7.00;1.00;;;;;;4944277;28;20101;-79
2022/01/29 10:24:00;;;;;;;17.05;5.22;;;7.20;99.90;;;;;;4962229;29;20039;-78
2022/01/29 10:26:29;;;;;;;13.02;4.25;;;7.30;99.90;;;;;;4942213;28;20119;-78
2022/01/29 10:28:58;;;;;;;16.20;4.65;;;7.20;1.00;;;;;;4941649;28;20063;-78
2022/01/29 10:31:39;;;;;;;9.15;2.83;;;7.20;1.00;;;;;;4956940;28;20043;-77
2022/01/29 10:34:21;;;;;;;14.15;3.20;;;7.10;1.00;;;;;;4938623;28;20047;-78
2022/01/29 10:37:15;;;;;;;18.88;4.07;;;7.10;1.00;;;;;;4956254;28;20051;-78
2022/01/29 10:39:44;;;;;;;9.25;2.33;;;7.00;1.00;;;;;;4939073;28;20055;-76
2022/01/29 10:42:18;;;;;;;11.27;4.00;;;6.80;99.90;;;;;;4956246;28;20096;-78
2022/01/29 10:44:47;;;;;;;11.18;4.85;;;6.30;1.00;;;;;;4939358;28;20463;-78
2022/01/29 10:47:15;;;;;;;15.95;4.20;;;6.30;1.00;;;;;;4956303;28;20070;-78
2022/01/29 10:49:52;;;;;;;8.05;2.75;;;6.40;1.00;;;;;;4956194;28;20047;-78
2022/01/29 10:52:28;;;;;;;12.50;3.17;;;6.30;1.00;;;;;;4956199;29;20130;-78
2022/01/29 10:54:59;;;;;;;10.05;3.72;;;6.40;99.90;;;;;;4940136;28;20043;-79
2022/01/29 10:57:34;;;;;;;12.57;3.40;;;6.50;99.90;;;;;;4939245;28;20051;-79
2022/01/29 11:00:17;;;;;;;13.13;4.13;;;6.50;1.00;;;;;;4940060;28;20412;-79
2022/01/29 11:02:48;;;;;;;17.63;4.57;;;6.50;1.00;;;;;;4962120;29;20070;-78
2022/01/29 11:05:15;;;;;;;14.40;5.07;;;6.60;99.90;;;;;;4967199;28;20043;-79
2022/01/29 11:07:50;;;;;;;14.55;4.35;;;6.60;99.90;;;;;;4959398;28;20130;-77
2022/01/29 11:10:19;;;;;;;12.07;5.10;;;6.50;1.00;;;;;;4940672;28;20055;-79
2022/01/29 11:12:48;;;;;;;21.67;7.03;;;6.40;1.00;;;;;;4954796;28;20059;-79
2022/01/29 11:15:18;;;;;;;17.63;6.60;;;6.30;1.00;;;;;;4956032;28;20472;-76
2022/01/29 11:17:49;;;;;;;18.50;4.57;;;6.30;1.00;;;;;;4955227;28;20063;-80
2022/01/29 11:20:19;;;;;;;13.63;4.03;;;6.30;99.90;;;;;;4955796;28;20130;-78
2022/01/29 11:22:54;;;;;;;14.80;4.82;;;6.40;1.00;;;;;;4938647;28;20498;-79
2022/01/29 11:25:24;;;;;;;13.75;3.97;;;6.60;10.20;;;;;;4938613;28;20074;-78
2022/01/29 11:28:12;;;;;;;13.32;3.60;;;6.70;1.00;;;;;;4954989;28;20142;-77
2022/01/29 11:30:43;;;;;;;8.60;2.92;;;6.70;99.90;;;;;;4937866;28;20564;-77
2022/01/29 11:33:10;;;;;;;10.32;4.07;;;6.70;99.90;;;;;;4938363;28;20043;-77
2022/01/29 11:35:51;;;;;;;12.90;4.35;;;6.60;1.00;;;;;;4939734;28;20488;-77
2022/01/29 11:38:30;;;;;;;13.95;4.50;;;6.50;1.00;;;;;;4939344;28;20051;-78
2022/01/29 11:40:59;;;;;;;24.08;5.50;;;6.60;1.00;;;;;;4957882;28;20112;-80
2022/01/29 11:43:29;;;;;;;15.73;5.43;;;6.70;1.00;;;;;;4959089;28;20151;-78
2022/01/29 11:46:03;;;;;;;14.68;5.10;;;6.80;99.90;;;;;;4941647;28;20051;-79
2022/01/29 11:48:53;;;;;;;14.30;4.38;;;6.90;99.90;;;;;;4938771;28;20517;-78
2022/01/29 11:51:42;;;;;;;16.75;4.90;;;7.00;1.00;;;;;;4955951;28;20567;-78
2022/01/29 11:54:14;;;;;;;15.90;4.40;;;7.10;1.00;;;;;;4954330;28;20408;-76
2022/01/29 11:56:44;;;;;;;18.73;4.75;;;7.10;1.00;;;;;;4936340;29;20055;-77
2022/01/29 11:59:33;;;;;;;14.80;3.40;;;7.10;1.00;;;;;;4954149;28;20043;-77
2022/01/29 12:02:03;;;;;;;12.63;3.15;;;7.00;1.00;;;;;;4937279;28;20055;-78
2022/01/29 12:05:03;;;;;;;19.50;4.20;;;7.00;1.00;;;;;;4955282;28;20073;-78
2022/01/29 12:07:34;;;;;;;25.38;7.40;;;7.10;99.90;;;;;;4937328;28;20044;-78
2022/01/29 12:10:07;;;;;;;12.80;3.60;;;7.10;99.90;;;;;;4937304;28;20503;-78
2022/01/29 12:12:35;;;;;;;29.42;5.90;;;6.80;1.00;;;;;;4938240;28;20082;-78
2022/01/29 12:15:38;;;;;;;11.35;3.78;;;6.80;99.90;;;;;;4938128;28;20067;-77
2022/01/29 12:18:25;;;;;;;7.70;2.70;;;6.80;1.00;;;;;;4938249;28;20043;-77
2022/01/29 12:20:53;;;;;;;10.75;3.22;;;6.80;99.90;;;;;;4957710;28;20115;-78
2022/01/29 12:23:21;;;;;;;13.38;3.15;;;6.80;99.90;;;;;;4960319;28;20043;-78
2022/01/29 12:25:58;;;;;;;9.27;3.50;;;6.60;99.90;;;;;;4962582;28;20069;-77
2022/01/29 12:28:26;;;;;;;11.77;3.53;;;6.60;76.80;;;;;;4944664;28;20074;-78
2022/01/29 12:30:55;;;;;;;19.55;3.60;;;6.70;99.90;;;;;;4963708;28;20044;-76
2022/01/29 12:33:24;;;;;;;13.20;4.68;;;6.70;1.00;;;;;;4939243;28;20447;-79
2022/01/29 12:35:58;;;;;;;9.98;4.00;;;6.80;99.90;;;;;;4954451;28;20047;-78
2022/01/29 12:38:34;;;;;;;9.90;4.05;;;6.80;99.90;;;;;;4936724;28;20101;-78
2022/01/29 12:41:05;;;;;;;12.85;4.10;;;6.80;1.00;;;;;;4936301;28;20051;-78
2022/01/29 12:43:37;;;;;;;10.85;2.70;;;6.80;99.90;;;;;;4936880;28;20105;-78
2022/01/29 12:46:10;;;;;;;9.05;3.45;;;6.80;99.90;;;;;;4938452;28;20117;-76
2022/01/29 12:48:38;;;;;;;10.68;4.28;;;6.70;99.90;;;;;;4937587;28;20078;-77
2022/01/29 12:51:07;;;;;;;8.93;3.83;;;6.70;99.90;;;;;;4936910;28;20058;-77
2022/01/29 12:53:35;;;;;;;13.45;3.20;;;6.70;99.90;;;;;;4953735;28;20048;-79
2022/01/29 12:56:06;;;;;;;8.27;3.40;;;6.70;99.90;;;;;;4937610;28;20472;-79
2022/01/29 12:58:37;;;;;;;10.65;4.32;;;6.80;99.90;;;;;;4954922;28;20047;-77
2022/01/29 13:01:06;;;;;;;15.02;3.70;;;6.80;1.00;;;;;;4938066;29;20101;-78
2022/01/29 13:03:37;;;;;;;14.77;3.88;;;6.90;1.00;;;;;;4936602;28;20059;-78
2022/01/29 13:06:09;;;;;;;14.32;4.90;;;6.90;99.90;;;;;;4938190;28;20401;-77
2022/01/29 13:08:40;;;;;;;13.27;5.35;;;6.90;99.90;;;;;;4958436;28;20476;-78
2022/01/29 13:11:26;;;;;;;12.25;4.70;;;7.00;99.90;;;;;;4962954;28;20047;-78
2022/01/29 13:13:54;;;;;;;13.13;5.53;;;6.90;99.90;;;;;;4951565;28;20105;-77
2022/01/29 13:16:21;;;;;;;14.27;4.72;;;7.00;1.00;;;;;;4940909;28;20051;-79